Time;durP1;ratioP1;P1;durP2;ratioP2;P2;SDS_P1;SDS_P2;PMS_P1;PMS_P2;Temp;Humidity;BMP_temperature;BMP_pressure;BME280_temperature;BME280_humidity;BME280_pressure;Samples;Min_cycle;Max_cycle;Signal;HPM_P1;HPM_P2
2023/11/08 05:58:56;;;;;;;;;;;;;;;3.87;100.00;100016.63;1803957;77;20310;-75
2023/11/08 06:01:23;;;;;;;;;;;;;;;3.92;100.00;100016.05;1826487;78;20381;-75
2023/11/08 06:03:53;;;;;;;;;;;;;;;4.01;100.00;100001.59;1829082;77;20087;-75
2023/11/08 06:11:16;;;;;;;;;;;;;;;4.27;100.00;100002.55;1799509;77;20125;-76
2023/11/08 06:13:42;;;;;;;;;;;;;;;4.36;100.00;99998.41;1823512;77;20399;-76
2023/11/08 06:16:08;;;;;;;;;;;;;;;4.47;100.00;100000.62;1809217;77;20153;-74
2023/11/08 06:28:27;;;;;;;;;;;;;;;5.01;100.00;100014.74;1801147;78;20113;-76
2023/11/08 06:30:54;;;;;;;;;;;;;;;5.10;100.00;100010.56;1821996;78;20105;-75
2023/11/08 06:33:21;;;;;;;;;;;;;;;5.18;100.00;100005.15;1799939;78;20128;-74
2023/11/08 06:35:47;;;;;;;;;;;;;;;5.25;100.00;99997.55;1814291;77;20115;-74
2023/11/08 06:38:13;;;;;;;;;;;;;;;5.31;100.00;99990.89;1809228;78;20435;-75
2023/11/08 06:40:41;;;;;;;;;;;;;;;5.39;100.00;100002.25;1822852;78;20106;-75
2023/11/08 06:43:07;;;;;;;;;;;;;;;5.46;100.00;99992.09;1815660;78;20415;-79
2023/11/08 06:45:34;;;;;;;;;;;;;;;5.51;100.00;99978.13;1810897;77;20092;-78
2023/11/08 06:48:00;;;;;;;;;;;;;;;5.59;100.00;99991.61;1814125;77;20134;-77
2023/11/08 06:50:27;;;;;;;;;;;;;;;5.68;100.00;99996.86;1811911;77;20137;-75
2023/11/08 06:52:57;;;;;;;;;;;;;;;5.74;100.00;99997.09;1823888;78;20135;-75
2023/11/08 06:55:24;;;;;;;;;;;;;;;5.79;100.00;99992.15;1810456;79;20161;-76
2023/11/08 06:57:51;;;;;;;;;;;;;;;5.87;100.00;99992.71;1809840;79;20147;-75
2023/11/08 07:00:18;;;;;;;;;;;;;;;5.93;100.00;99988.64;1813760;79;20136;-79
2023/11/08 07:02:47;;;;;;;;;;;;;;;6.00;100.00;99987.93;1821550;79;20100;-79
2023/11/08 07:05:14;;;;;;;;;;;;;;;6.04;100.00;99989.50;1811896;79;20087;-76
2023/11/08 07:07:41;;;;;;;;;;;;;;;6.07;100.00;99989.38;1814922;77;20151;-76
2023/11/08 07:10:11;;;;;;;;;;;;;;;6.08;100.00;99987.64;1806215;79;20179;-75
2023/11/08 07:12:43;;;;;;;;;;;;;;;6.08;100.00;99988.48;1802495;79;20110;-77
2023/11/08 07:17:39;;;;;;;;;;;;;;;6.10;100.00;99975.05;1796049;79;20098;-75
2023/11/08 07:20:07;;;;;;;;;;;;;;;6.14;100.00;99974.48;1788509;80;20133;-74
2023/11/08 07:22:35;;;;;;;;;;;;;;;6.19;100.00;99966.10;1788888;80;20102;-74
2023/11/08 07:25:02;;;;;;;;;;;;;;;6.23;100.00;99953.45;1789046;79;20118;-75
2023/11/08 07:27:30;;;;;;;;;;;;;;;6.27;100.00;99947.25;1799578;79;20109;-75
2023/11/08 07:29:56;;;;;;;;;;;;;;;6.31;100.00;99944.94;1788184;79;20094;-75
2023/11/08 07:32:23;;;;;;;;;;;;;;;6.37;100.00;99935.64;1788195;80;20133;-75
2023/11/08 07:34:52;;;;;;;;;;;;;;;6.44;100.00;99937.50;1787860;79;20121;-76
2023/11/08 07:37:18;;;;;;;;;;;;;;;6.53;100.00;99929.38;1804886;77;20201;-74
2023/11/08 07:39:45;;;;;;;;;;;;;;;6.61;100.00;99923.44;1818814;79;20136;-76
2023/11/08 07:42:11;;;;;;;;;;;;;;;6.67;100.00;99932.24;1815148;79;20425;-75
2023/11/08 07:47:11;;;;;;;;;;;;;;;6.81;100.00;99931.64;1767339;81;20153;-76
2023/11/08 07:49:38;;;;;;;;;;;;;;;6.90;100.00;99923.03;1750079;82;20120;-76
2023/11/08 07:52:04;;;;;;;;;;;;;;;6.98;100.00;99915.79;1751198;82;20176;-77
2023/11/08 07:54:35;;;;;;;;;;;;;;;7.04;100.00;99918.57;1751029;82;20128;-76
2023/11/08 07:57:00;;;;;;;;;;;;;;;7.10;100.00;99922.64;1738090;81;20094;-76
2023/11/08 07:59:27;;;;;;;;;;;;;;;7.14;100.00;99920.31;1755054;81;20417;-76
2023/11/08 08:01:53;;;;;;;;;;;;;;;7.21;100.00;99924.28;1735056;83;20394;-77
2023/11/08 08:04:20;;;;;;;;;;;;;;;7.29;100.00;99920.45;1738673;82;20119;-78
2023/11/08 08:06:46;;;;;;;;;;;;;;;7.38;100.00;99915.78;1762742;81;20355;-70
2023/11/08 08:09:17;;;;;;;;;;;;;;;7.46;100.00;99916.28;1748759;81;20107;-68
2023/11/08 08:11:44;;;;;;;;;;;;;;;7.56;100.00;99908.48;1737557;82;20138;-71
2023/11/08 08:14:10;;;;;;;;;;;;;;;7.67;100.00;99895.84;1754803;81;20109;-69
2023/11/08 08:16:39;;;;;;;;;;;;;;;7.77;100.00;99897.11;1771497;81;20106;-68
2023/11/08 08:19:05;;;;;;;;;;;;;;;7.83;100.00;99887.75;1735814;82;20135;-69
2023/11/08 09:09:00;;;;;;;;;;;;;;;7.85;100.00;99837.97;1774812;80;20434;-70
2023/11/08 09:11:29;;;;;;;;;;;;;;;7.86;100.00;99835.77;1783382;80;20120;-72
2023/11/08 09:18:53;;;;;;;;;;;;;;;7.85;100.00;99836.67;1773584;80;20138;-70
2023/11/08 09:21:23;;;;;;;;;;;;;;;7.87;100.00;99828.37;1765731;81;20421;-70
2023/11/08 09:28:54;;;;;;;;;;;;;;;7.84;100.00;99820.73;1758518;81;20149;-69
2023/11/08 09:31:20;;;;;;;;;;;;;;;7.82;100.00;99824.31;1759198;80;20101;-69
2023/11/08 09:33:47;;;;;;;;;;;;;;;7.78;100.00;99824.91;1764156;80;20396;-69
2023/11/08 09:38:48;;;;;;;;;;;;;;;7.73;100.00;99813.09;1765696;80;20092;-70
2023/11/08 09:41:14;;;;;;;;;;;;;;;7.71;100.00;99809.27;1773590;81;20100;-69
2023/11/08 10:11:30;;;;;;;;;;;;;;;7.73;100.00;99788.01;1752056;81;20134;-70
2023/11/08 10:13:57;;;;;;;;;;;;;;;7.76;100.00;99787.86;1766792;80;20168;-68
2023/11/08 10:16:24;;;;;;;;;;;;;;;7.78;100.00;99781.31;1768964;80;20119;-71
2023/11/08 10:18:55;;;;;;;;;;;;;;;7.79;100.00;99775.21;1768929;80;20142;-71
2023/11/08 11:06:49;;;;;;;;;;;;;;;7.87;100.00;99726.42;1746592;82;20496;-72
2023/11/08 11:09:16;;;;;;;;;;;;;;;7.88;100.00;99722.46;1745785;82;20138;-72
2023/11/08 11:11:54;;;;;;;;;;;;;;;7.90;100.00;99724.98;1745237;82;20138;-68
2023/11/08 11:32:51;;;;;;;;;;;;;;;8.03;100.00;99692.31;1685729;82;20177;-66
2023/11/08 12:08:33;;;;;;;;;;;;;;;7.95;100.00;99629.67;1749124;81;20143;-68
2023/11/08 12:11:17;;;;;;;;;;;;;;;7.96;100.00;99628.30;1749543;81;20102;-70
2023/11/08 12:13:51;;;;;;;;;;;;;;;7.99;100.00;99627.30;1753304;82;20120;-69
2023/11/08 12:26:19;;;;;;;;;;;;;;;8.03;100.00;99628.33;1756063;81;20434;-68
2023/11/08 12:28:46;;;;;;;;;;;;;;;8.01;100.00;99621.09;1750022;81;20398;-72
2023/11/08 12:31:15;;;;;;;;;;;;;;;8.00;100.00;99627.19;1758819;81;20409;-70
2023/11/08 12:58:49;;;;;;;;;;;;;;;7.86;100.00;99608.10;1767829;81;20157;-73
2023/11/08 13:01:19;;;;;;;;;;;;;;;7.86;100.00;99608.94;1753354;80;20361;-76
2023/11/08 13:03:46;;;;;;;;;;;;;;;7.84;100.00;99603.00;1747964;81;20100;-77
2023/11/08 13:06:13;;;;;;;;;;;;;;;7.83;100.00;99607.80;1753318;80;20107;-73
2023/11/08 13:08:40;;;;;;;;;;;;;;;7.83;100.00;99596.59;1762529;81;20108;-71
2023/11/08 13:11:06;;;;;;;;;;;;;;;7.81;100.00;99594.54;1746025;80;20095;-71
2023/11/08 13:13:34;;;;;;;;;;;;;;;7.80;100.00;99591.11;1750047;81;20160;-71
2023/11/08 13:21:04;;;;;;;;;;;;;;;7.77;100.00;99587.84;1747029;81;20429;-70
2023/11/08 13:23:32;;;;;;;;;;;;;;;7.74;100.00;99571.14;1739863;81;20142;-69
2023/11/08 13:25:58;;;;;;;;;;;;;;;7.74;100.00;99572.44;1764650;81;20489;-66
2023/11/08 13:28:25;;;;;;;;;;;;;;;7.74;100.00;99567.26;1757065;81;20417;-66
2023/11/08 13:30:51;;;;;;;;;;;;;;;7.72;100.00;99562.61;1749359;81;20124;-66
2023/11/08 13:33:18;;;;;;;;;;;;;;;7.70;100.00;99560.09;1744309;81;20123;-66
2023/11/08 13:35:45;;;;;;;;;;;;;;;7.69;100.00;99567.03;1763005;80;20107;-71
2023/11/08 13:38:11;;;;;;;;;;;;;;;7.71;100.00;99557.89;1768767;81;20453;-68
2023/11/08 13:40:42;;;;;;;;;;;;;;;7.74;100.00;99562.08;1746983;81;20116;-68
2023/11/08 13:43:08;;;;;;;;;;;;;;;7.72;100.00;99563.45;1745870;80;20159;-66
2023/11/08 13:57:57;;;;;;;;;;;;;;;7.85;100.00;99554.59;1759622;81;20404;-71
2023/11/08 14:00:23;;;;;;;;;;;;;;;7.85;100.00;99561.91;1757737;81;20165;-71
2023/11/08 14:07:55;;;;;;;;;;;;;;;7.83;100.00;99546.89;1758608;80;20142;-68
2023/11/08 14:10:22;;;;;;;;;;;;;;;7.82;100.00;99538.73;1757160;81;20104;-67
2023/11/08 14:12:49;;;;;;;;;;;;;;;7.82;100.00;99542.63;1762440;80;20464;-66
2023/11/08 14:15:17;;;;;;;;;;;;;;;7.84;100.00;99533.02;1757975;80;20096;-68
2023/11/08 14:17:44;;;;;;;;;;;;;;;7.83;100.00;99537.81;1758798;81;20168;-67
2023/11/08 14:20:11;;;;;;;;;;;;;;;7.80;100.00;99525.02;1758562;81;20138;-65
2023/11/08 14:22:39;;;;;;;;;;;;;;;7.81;100.00;99527.98;1757908;80;20127;-68
2023/11/08 14:25:07;;;;;;;;;;;;;;;7.82;100.00;99529.66;1758407;80;20309;-66
2023/11/08 14:27:34;;;;;;;;;;;;;;;7.82;100.00;99531.41;1758873;81;20458;-68
2023/11/08 14:34:58;;;;;;;;;;;;;;;7.82;100.00;99528.37;1758797;81;20139;-70
2023/11/08 14:37:26;;;;;;;;;;;;;;;7.82;100.00;99522.34;1758351;81;20174;-71
2023/11/08 14:39:53;;;;;;;;;;;;;;;7.81;100.00;99523.27;1756901;81;20181;-68
2023/11/08 14:57:49;;;;;;;;;;;;;;;7.74;100.00;99490.81;1768287;80;20446;-69
